Time;durP1;ratioP1;P1;durP2;ratioP2;P2;SDS_P1;SDS_P2;PMS_P1;PMS_P2;Temp;Humidity;BMP_temperature;BMP_pressure;BME280_temperature;BME280_humidity;BME280_pressure;Samples;Min_cycle;Max_cycle;Signal;HPM_P1;HPM_P2
2022/08/06 00:01:10;;;;;;;2.15;0.82;;;;;;;;;;5070696;28;20470;-72
2022/08/06 00:03:36;;;;;;;2.75;0.80;;;;;;;;;;5070425;28;20485;-73
2022/08/06 00:06:02;;;;;;;2.35;0.77;;;;;;;;;;5052752;28;20095;-71
2022/08/06 00:08:28;;;;;;;0.90;0.70;;;;;;;;;;5070752;28;20032;-71
2022/08/06 00:10:54;;;;;;;2.95;1.00;;;;;;;;;;5054400;28;20017;-72
2022/08/06 00:13:20;;;;;;;2.08;0.73;;;;;;;;;;5071324;28;20107;-72
2022/08/06 00:15:46;;;;;;;2.45;0.77;;;;;;;;;;5070975;28;20025;-73
2022/08/06 00:18:12;;;;;;;2.28;0.80;;;;;;;;;;5071679;28;20032;-73
2022/08/06 00:20:38;;;;;;;2.15;0.80;;;;;;;;;;5069818;28;20028;-73
2022/08/06 00:23:04;;;;;;;1.52;0.68;;;;;;;;;;5053802;28;20056;-72
2022/08/06 00:25:30;;;;;;;2.40;0.85;;;;;;;;;;5074599;28;20036;-73
2022/08/06 00:27:56;;;;;;;1.90;0.90;;;;;;;;;;5075255;28;20119;-74
2022/08/06 00:30:22;;;;;;;2.45;0.70;;;;;;;;;;5090589;28;20020;-71
2022/08/06 00:32:48;;;;;;;1.85;0.70;;;;;;;;;;5091493;28;20524;-71
2022/08/06 00:35:14;;;;;;;1.80;0.80;;;;;;;;;;5091652;28;20529;-72
2022/08/06 00:37:40;;;;;;;1.55;1.02;;;;;;;;;;5074669;28;20032;-72
2022/08/06 00:40:06;;;;;;;1.38;0.65;;;;;;;;;;5074777;28;20027;-73
2022/08/06 00:42:32;;;;;;;2.10;0.80;;;;;;;;;;5089447;28;20520;-74
2022/08/06 00:44:59;;;;;;;1.40;0.90;;;;;;;;;;5071716;28;20028;-72
2022/08/06 00:47:25;;;;;;;2.05;1.00;;;;;;;;;;5065650;28;20070;-72
2022/08/06 00:49:51;;;;;;;1.52;0.80;;;;;;;;;;5068337;28;20129;-72
2022/08/06 00:52:17;;;;;;;2.03;0.73;;;;;;;;;;5074730;28;20025;-72
2022/08/06 00:54:43;;;;;;;1.67;0.73;;;;;;;;;;5062102;28;20020;-73
2022/08/06 00:57:09;;;;;;;2.83;1.23;;;;;;;;;;5075367;28;20163;-73
2022/08/06 00:59:35;;;;;;;1.92;0.90;;;;;;;;;;5074868;28;20079;-72
2022/08/06 01:02:01;;;;;;;2.97;0.90;;;;;;;;;;5074636;28;20033;-74
2022/08/06 01:04:27;;;;;;;2.20;0.60;;;;;;;;;;5074775;28;20061;-74
2022/08/06 01:06:53;;;;;;;2.17;0.93;;;;;;;;;;5074486;28;20039;-72
2022/08/06 01:09:19;;;;;;;1.70;0.80;;;;;;;;;;5055791;28;20020;-72
2022/08/06 01:11:44;;;;;;;2.13;0.75;;;;;;;;;;5072903;28;20025;-73
2022/08/06 01:14:10;;;;;;;2.88;0.90;;;;;;;;;;5074777;28;20429;-73
2022/08/06 01:16:51;;;;;;;1.80;0.70;;;;;;;;;;5055693;28;20119;-74
2022/08/06 01:19:26;;;;;;;3.53;0.90;;;;;;;;;;5073805;28;20378;-73
2022/08/06 01:21:55;;;;;;;3.03;0.90;;;;;;;;;;5053972;28;20025;-73
2022/08/06 01:24:30;;;;;;;1.90;0.88;;;;;;;;;;5073281;28;20355;-73
2022/08/06 01:27:04;;;;;;;1.92;0.85;;;;;;;;;;5072940;28;20063;-71
2022/08/06 01:29:33;;;;;;;3.15;1.10;;;;;;;;;;5074185;28;20124;-73
2022/08/06 01:32:11;;;;;;;2.58;0.85;;;;;;;;;;5074729;28;20044;-73
2022/08/06 01:34:41;;;;;;;2.20;0.90;;;;;;;;;;5074659;28;20025;-72
2022/08/06 01:37:26;;;;;;;1.83;0.80;;;;;;;;;;5088316;28;20021;-71
2022/08/06 01:39:55;;;;;;;2.53;0.80;;;;;;;;;;5074035;28;20095;-74
2022/08/06 01:42:22;;;;;;;2.58;0.82;;;;;;;;;;5073397;28;20471;-72
2022/08/06 01:44:49;;;;;;;1.27;0.80;;;;;;;;;;5073528;28;20099;-73
2022/08/06 01:47:17;;;;;;;2.80;0.77;;;;;;;;;;5089141;28;20020;-72
2022/08/06 01:49:48;;;;;;;1.92;0.88;;;;;;;;;;5074417;28;20410;-74
2022/08/06 01:52:15;;;;;;;2.05;0.80;;;;;;;;;;5090208;28;20025;-73
2022/08/06 01:54:43;;;;;;;3.42;0.90;;;;;;;;;;5074320;28;20029;-72
2022/08/06 01:57:13;;;;;;;1.60;0.80;;;;;;;;;;5072926;28;20210;-72
2022/08/06 01:59:42;;;;;;;1.95;0.95;;;;;;;;;;5073700;28;20075;-71
2022/08/06 02:02:11;;;;;;;1.45;0.60;;;;;;;;;;5072265;28;20074;-73
2022/08/06 02:04:37;;;;;;;;;;;;;;;;;;5073616;28;20047;-72
2022/08/06 02:07:05;;;;;;;2.88;0.82;;;;;;;;;;5072081;28;20441;-72
2022/08/06 02:09:32;;;;;;;;;;;;;;;;;;5090015;28;20020;-72
2022/08/06 02:12:04;;;;;;;1.90;0.70;;;;;;;;;;5073229;28;19904;-73
2022/08/06 02:14:32;;;;;;;1.92;1.20;;;;;;;;;;5066975;28;20017;-74
2022/08/06 02:17:00;;;;;;;1.38;0.80;;;;;;;;;;5061100;28;20028;-72
2022/08/06 02:19:26;;;;;;;2.97;1.00;;;;;;;;;;5073827;28;20021;-73
2022/08/06 02:21:53;;;;;;;1.73;0.82;;;;;;;;;;5067876;28;21204;-72
2022/08/06 02:24:20;;;;;;;1.85;0.80;;;;;;;;;;5065423;28;20041;-72
2022/08/06 02:26:46;;;;;;;3.15;1.10;;;;;;;;;;5055540;28;20032;-73
2022/08/06 02:29:17;;;;;;;1.98;0.80;;;;;;;;;;5055699;28;20082;-72
2022/08/06 02:31:43;;;;;;;1.98;1.17;;;;;;;;;;5055640;28;20082;-75
2022/08/06 02:34:09;;;;;;;3.05;1.10;;;;;;;;;;5054759;28;20020;-74
2022/08/06 02:36:46;;;;;;;1.30;0.82;;;;;;;;;;5072225;28;20016;-73
2022/08/06 02:39:25;;;;;;;4.10;1.10;;;;;;;;;;5089089;28;20028;-71
2022/08/06 02:41:55;;;;;;;2.75;1.10;;;;;;;;;;5069904;28;20039;-73
2022/08/06 02:44:28;;;;;;;2.63;1.20;;;;;;;;;;5067989;28;20029;-72
2022/08/06 02:47:05;;;;;;;2.05;1.02;;;;;;;;;;5051157;28;20036;-73
2022/08/06 02:49:33;;;;;;;2.13;1.30;;;;;;;;;;5068715;28;20036;-72
2022/08/06 02:52:11;;;;;;;2.38;1.00;;;;;;;;;;5052914;28;20376;-73
2022/08/06 02:54:42;;;;;;;2.03;0.85;;;;;;;;;;5068758;28;20040;-72
2022/08/06 02:57:12;;;;;;;1.83;1.10;;;;;;;;;;5058168;28;20462;-73
2022/08/06 02:59:43;;;;;;;2.10;1.13;;;;;;;;;;5055038;28;20020;-72
2022/08/06 03:02:11;;;;;;;1.65;0.80;;;;;;;;;;5071818;28;20032;-72
2022/08/06 03:04:38;;;;;;;3.08;1.20;;;;;;;;;;5084837;28;20024;-72
2022/08/06 03:07:07;;;;;;;1.87;0.97;;;;;;;;;;5072720;28;20353;-73
2022/08/06 03:09:35;;;;;;;1.98;1.10;;;;;;;;;;5047508;28;20270;-73
2022/08/06 03:12:01;;;;;;;2.50;1.20;;;;;;;;;;5072732;28;20025;-72
2022/08/06 03:14:27;;;;;;;1.48;0.90;;;;;;;;;;5054111;28;20051;-73
2022/08/06 03:16:54;;;;;;;2.75;1.08;;;;;;;;;;5064736;28;20033;-74
2022/08/06 03:19:20;;;;;;;2.25;1.08;;;;;;;;;;5068670;28;20017;-73
2022/08/06 03:21:47;;;;;;;4.05;0.95;;;;;;;;;;5044698;28;20028;-73
2022/08/06 03:24:13;;;;;;;1.70;0.88;;;;;;;;;;5087952;28;20137;-72
2022/08/06 03:26:40;;;;;;;1.85;1.00;;;;;;;;;;5072319;28;20025;-71
2022/08/06 03:29:06;;;;;;;2.95;1.00;;;;;;;;;;5071052;28;20033;-72
2022/08/06 03:31:32;;;;;;;1.95;1.00;;;;;;;;;;5070356;28;20032;-72
2022/08/06 03:33:59;;;;;;;3.58;1.00;;;;;;;;;;5072412;28;20032;-73
2022/08/06 03:36:25;;;;;;;1.30;0.88;;;;;;;;;;5053562;28;20099;-72
2022/08/06 03:38:54;;;;;;;1.65;1.05;;;;;;;;;;5072460;28;20027;-71
2022/08/06 03:41:20;;;;;;;3.55;1.20;;;;;;;;;;5070074;28;20051;-71
2022/08/06 03:43:46;;;;;;;3.13;1.10;;;;;;;;;;5087888;28;20091;-72
2022/08/06 03:46:13;;;;;;;3.05;1.10;;;;;;;;;;5086339;28;20123;-72
2022/08/06 03:48:41;;;;;;;3.53;1.20;;;;;;;;;;5086367;28;20466;-72
2022/08/06 03:51:17;;;;;;;3.37;1.50;;;;;;;;;;5072290;28;20466;-72
2022/08/06 03:53:44;;;;;;;2.38;1.20;;;;;;;;;;5072447;28;20254;-72
2022/08/06 03:56:14;;;;;;;2.53;1.30;;;;;;;;;;5070832;28;20090;-73
2022/08/06 03:58:40;;;;;;;1.58;1.00;;;;;;;;;;5086415;28;20440;-72
2022/08/06 04:01:10;;;;;;;2.05;1.10;;;;;;;;;;5069994;28;20063;-71
2022/08/06 04:03:37;;;;;;;2.70;1.05;;;;;;;;;;5072082;28;20032;-73
2022/08/06 04:06:03;;;;;;;2.47;1.13;;;;;;;;;;5071354;28;20021;-73
2022/08/06 04:08:31;;;;;;;3.13;1.35;;;;;;;;;;5071680;28;20033;-73
2022/08/06 04:10:57;;;;;;;3.70;1.08;;;;;;;;;;5071251;28;20074;-72
2022/08/06 04:13:24;;;;;;;1.85;1.13;;;;;;;;;;5072097;28;20438;-72
2022/08/06 04:15:51;;;;;;;4.80;1.20;;;;;;;;;;5071237;28;20016;-72
2022/08/06 04:18:18;;;;;;;2.95;1.40;;;;;;;;;;5053946;28;20540;-74
2022/08/06 04:20:50;;;;;;;1.55;1.05;;;;;;;;;;5070929;28;20383;-72
2022/08/06 04:23:16;;;;;;;1.70;1.05;;;;;;;;;;5048415;28;20023;-73
2022/08/06 04:25:45;;;;;;;2.13;1.23;;;;;;;;;;5086906;28;20040;-72
2022/08/06 04:28:12;;;;;;;2.28;0.93;;;;;;;;;;5081048;28;20036;-72
2022/08/06 04:30:39;;;;;;;2.13;1.45;;;;;;;;;;5083762;28;20039;-73
2022/08/06 04:33:05;;;;;;;2.70;1.20;;;;;;;;;;5071759;28;20031;-73
2022/08/06 04:35:32;;;;;;;2.78;1.20;;;;;;;;;;5064532;28;20108;-72
2022/08/06 04:38:01;;;;;;;3.83;1.40;;;;;;;;;;5071604;28;20025;-73
2022/08/06 04:40:27;;;;;;;3.10;1.23;;;;;;;;;;5063934;28;20025;-73
2022/08/06 04:42:53;;;;;;;3.08;1.40;;;;;;;;;;5051606;28;20124;-72
2022/08/06 04:45:19;;;;;;;2.28;1.02;;;;;;;;;;5071732;28;20091;-72
2022/08/06 04:47:47;;;;;;;1.83;1.27;;;;;;;;;;5057887;28;20041;-72
2022/08/06 04:50:13;;;;;;;1.55;1.10;;;;;;;;;;5051335;28;20036;-72
2022/08/06 04:52:40;;;;;;;2.67;1.05;;;;;;;;;;5063156;28;20029;-72
2022/08/06 04:55:07;;;;;;;2.45;1.20;;;;;;;;;;5070771;28;20070;-72
2022/08/06 04:57:33;;;;;;;2.95;1.27;;;;;;;;;;5069619;28;20033;-72
2022/08/06 04:59:59;;;;;;;3.47;1.40;;;;;;;;;;5071683;28;20067;-73
2022/08/06 05:02:25;;;;;;;4.03;1.58;;;;;;;;;;5069902;28;20438;-72
2022/08/06 05:04:55;;;;;;;3.40;1.50;;;;;;;;;;5086257;28;20052;-73
2022/08/06 05:07:27;;;;;;;2.22;1.27;;;;;;;;;;5069674;28;20024;-71
2022/08/06 05:09:53;;;;;;;4.45;1.60;;;;;;;;;;5073655;28;20487;-72
2022/08/06 05:12:20;;;;;;;3.92;1.70;;;;;;;;;;5074054;28;20048;-72
2022/08/06 05:15:06;;;;;;;2.05;1.38;;;;;;;;;;5075170;28;20108;-72
2022/08/06 05:17:43;;;;;;;1.73;1.10;;;;;;;;;;5073370;28;20481;-72
2022/08/06 05:20:15;;;;;;;2.15;1.25;;;;;;;;;;5074864;28;20067;-73
2022/08/06 05:22:42;;;;;;;3.08;1.27;;;;;;;;;;5073164;28;20021;-72
2022/08/06 05:25:08;;;;;;;3.13;1.10;;;;;;;;;;5073763;28;20074;-72
2022/08/06 05:27:34;;;;;;;2.80;1.23;;;;;;;;;;5073843;28;20048;-72
2022/08/06 05:30:01;;;;;;;2.70;1.30;;;;;;;;;;5074730;28;20071;-72
2022/08/06 05:32:27;;;;;;;1.95;1.30;;;;;;;;;;5089593;28;20149;-73
2022/08/06 05:34:53;;;;;;;2.35;1.27;;;;;;;;;;5074386;28;20056;-72
2022/08/06 05:37:19;;;;;;;3.50;1.50;;;;;;;;;;5054148;28;20137;-72
2022/08/06 05:39:45;;;;;;;3.10;1.30;;;;;;;;;;5074122;28;20446;-71
2022/08/06 05:42:11;;;;;;;4.43;1.40;;;;;;;;;;5052933;28;20154;-72
2022/08/06 05:44:37;;;;;;;2.70;1.38;;;;;;;;;;5071416;28;20482;-73
2022/08/06 05:47:06;;;;;;;5.38;1.50;;;;;;;;;;5070979;28;20545;-72
2022/08/06 05:49:38;;;;;;;2.65;1.42;;;;;;;;;;5074033;28;20186;-72
2022/08/06 05:52:17;;;;;;;3.00;1.58;;;;;;;;;;5069807;28;20028;-73
2022/08/06 05:55:00;;;;;;;4.80;1.80;;;;;;;;;;5073477;28;20367;-72
2022/08/06 05:57:32;;;;;;;2.60;1.60;;;;;;;;;;5074214;28;20038;-72
2022/08/06 06:00:08;;;;;;;2.35;1.58;;;;;;;;;;5082496;28;20024;-73
2022/08/06 06:02:36;;;;;;;3.40;1.70;;;;;;;;;;5065714;28;20483;-73
2022/08/06 06:05:02;;;;;;;4.18;1.38;;;;;;;;;;5073378;28;20114;-72
2022/08/06 06:07:28;;;;;;;6.25;2.15;;;;;;;;;;5089138;28;20028;-73
2022/08/06 06:09:55;;;;;;;4.82;1.40;;;;;;;;;;5055335;28;20064;-74
2022/08/06 06:12:22;;;;;;;2.22;1.48;;;;;;;;;;5073264;28;20021;-73
2022/08/06 06:14:49;;;;;;;4.07;1.73;;;;;;;;;;5067895;28;20024;-74
2022/08/06 06:17:17;;;;;;;3.80;1.63;;;;;;;;;;5073136;28;20024;-72
2022/08/06 06:19:43;;;;;;;;;;;;;;;;;;5073279;28;20052;-72
2022/08/06 06:22:17;;;;;;;4.30;1.58;;;;;;;;;;5045080;28;20350;-73
2022/08/06 06:25:02;;;;;;;3.35;1.83;;;;;;;;;;5053727;28;20345;-72
2022/08/06 06:27:48;;;;;;;3.83;1.98;;;;;;;;;;5071747;28;20036;-72
2022/08/06 06:30:17;;;;;;;5.03;2.22;;;;;;;;;;5081270;28;20032;-71
2022/08/06 06:32:49;;;;;;;2.22;1.52;;;;;;;;;;5055406;28;20127;-73
2022/08/06 06:35:15;;;;;;;4.88;1.90;;;;;;;;;;5055600;28;20024;-72
2022/08/06 06:37:49;;;;;;;4.50;2.08;;;;;;;;;;5071340;28;20033;-73
2022/08/06 06:40:35;;;;;;;2.72;1.90;;;;;;;;;;5082118;28;20524;-73
2022/08/06 06:43:30;;;;;;;4.30;2.00;;;;;;;;;;5069356;28;20029;-73
2022/08/06 06:46:22;;;;;;;3.05;1.73;;;;;;;;;;5062802;28;20040;-72
2022/08/06 06:48:50;;;;;;;4.13;1.80;;;;;;;;;;5040282;28;20048;-71
2022/08/06 06:51:24;;;;;;;3.55;1.88;;;;;;;;;;5068659;28;20111;-73
2022/08/06 06:53:51;;;;;;;2.92;1.83;;;;;;;;;;5068049;28;20102;-73
2022/08/06 06:56:19;;;;;;;2.78;1.63;;;;;;;;;;5053521;28;20398;-72
2022/08/06 06:58:58;;;;;;;3.67;1.73;;;;;;;;;;5082597;28;20090;-73
2022/08/06 07:01:24;;;;;;;3.70;1.75;;;;;;;;;;5071216;28;20051;-73
2022/08/06 07:03:51;;;;;;;3.17;1.42;;;;;;;;;;5056197;28;20027;-73
2022/08/06 07:06:17;;;;;;;3.33;1.60;;;;;;;;;;5072577;28;20466;-71
2022/08/06 07:08:47;;;;;;;5.90;1.85;;;;;;;;;;5072748;28;20032;-73
2022/08/06 07:11:18;;;;;;;3.15;1.38;;;;;;;;;;5071718;28;20493;-75
2022/08/06 07:13:45;;;;;;;3.72;1.42;;;;;;;;;;5071362;28;20043;-73
2022/08/06 07:16:13;;;;;;;3.25;1.75;;;;;;;;;;5085541;28;20363;-72
2022/08/06 07:18:39;;;;;;;8.70;1.83;;;;;;;;;;5070311;28;20024;-72
2022/08/06 07:21:06;;;;;;;3.45;1.50;;;;;;;;;;5072380;28;20021;-72
2022/08/06 07:23:32;;;;;;;4.20;1.60;;;;;;;;;;5072314;28;20461;-72
2022/08/06 07:25:59;;;;;;;2.53;1.00;;;;;;;;;;5054476;28;20021;-72
2022/08/06 07:28:25;;;;;;;3.33;1.00;;;;;;;;;;5072435;28;20168;-74
2022/08/06 07:30:52;;;;;;;4.43;1.20;;;;;;;;;;5050700;28;20017;-74
2022/08/06 07:33:22;;;;;;;3.70;1.17;;;;;;;;;;5034196;28;20047;-73
2022/08/06 07:35:50;;;;;;;3.60;1.15;;;;;;;;;;5068218;28;20028;-72
2022/08/06 07:38:18;;;;;;;3.05;1.10;;;;;;;;;;5071904;28;20497;-73
2022/08/06 07:40:45;;;;;;;2.45;1.00;;;;;;;;;;5076429;28;20024;-72
2022/08/06 07:43:12;;;;;;;3.20;0.98;;;;;;;;;;5075191;28;20031;-73
2022/08/06 07:45:38;;;;;;;2.40;0.98;;;;;;;;;;5068965;28;20028;-75
2022/08/06 07:48:12;;;;;;;3.42;1.08;;;;;;;;;;5050968;28;20058;-74
2022/08/06 07:50:40;;;;;;;5.65;1.40;;;;;;;;;;5072012;28;20024;-72
2022/08/06 07:53:07;;;;;;;3.78;1.20;;;;;;;;;;5086886;28;20029;-72
2022/08/06 07:55:33;;;;;;;4.72;1.23;;;;;;;;;;5086695;28;20437;-73
2022/08/06 07:58:01;;;;;;;3.42;1.38;;;;;;;;;;5072132;28;20032;-72
2022/08/06 08:00:27;;;;;;;4.20;1.35;;;;;;;;;;5087562;28;20048;-73
2022/08/06 08:08:25;;;;;;;2.25;1.00;;;;;;;;;;5069218;28;20086;-72
2022/08/06 08:10:53;;;;;;;1.73;0.80;;;;;;;;;;5086447;28;20021;-73
2022/08/06 08:13:19;;;;;;;2.75;0.80;;;;;;;;;;5087789;28;20036;-72
2022/08/06 08:15:46;;;;;;;2.13;0.90;;;;;;;;;;5071716;28;20024;-76
2022/08/06 08:18:12;;;;;;;3.13;1.10;;;;;;;;;;5070156;28;20474;-72
2022/08/06 08:20:39;;;;;;;3.50;0.90;;;;;;;;;;5080409;28;20020;-73
2022/08/06 08:23:05;;;;;;;3.42;1.27;;;;;;;;;;5068455;28;20337;-73
2022/08/06 08:25:32;;;;;;;2.80;0.90;;;;;;;;;;5069785;28;20043;-74
2022/08/06 08:27:58;;;;;;;3.47;1.05;;;;;;;;;;5067784;28;20037;-73
2022/08/06 08:30:24;;;;;;;2.75;0.80;;;;;;;;;;5067770;28;20020;-73
2022/08/06 08:32:50;;;;;;;2.30;0.80;;;;;;;;;;5064737;28;20031;-74
2022/08/06 08:35:15;;;;;;;2.67;0.82;;;;;;;;;;5070574;28;20029;-74
2022/08/06 08:37:42;;;;;;;3.38;1.00;;;;;;;;;;5069417;28;20462;-73
2022/08/06 08:40:08;;;;;;;4.93;1.10;;;;;;;;;;5067444;28;20082;-73
2022/08/06 08:42:37;;;;;;;2.03;0.65;;;;;;;;;;5069003;28;20093;-73
2022/08/06 08:45:03;;;;;;;;;;;;;;;;;;5072545;28;20037;-73
2022/08/06 08:47:31;;;;;;;2.25;0.70;;;;;;;;;;5085222;28;20347;-72
2022/08/06 08:49:59;;;;;;;2.67;0.70;;;;;;;;;;5067502;28;20020;-72
2022/08/06 08:52:32;;;;;;;0.65;0.47;;;;;;;;;;5086029;28;20585;-73
2022/08/06 08:55:00;;;;;;;1.05;0.45;;;;;;;;;;5071010;28;20025;-72
2022/08/06 08:57:27;;;;;;;4.50;0.77;;;;;;;;;;5073928;28;20031;-81
2022/08/06 08:59:53;;;;;;;1.50;0.75;;;;;;;;;;5083609;28;20039;-78
2022/08/06 09:02:20;;;;;;;3.03;0.77;;;;;;;;;;5066442;28;20455;-78
2022/08/06 09:04:46;;;;;;;1.50;0.70;;;;;;;;;;5053359;28;20028;-77
2022/08/06 09:07:12;;;;;;;3.13;0.73;;;;;;;;;;5052380;28;20486;-78
2022/08/06 09:09:39;;;;;;;2.72;0.60;;;;;;;;;;5072716;28;20048;-78
2022/08/06 09:12:05;;;;;;;2.38;0.63;;;;;;;;;;5055360;28;20024;-77
2022/08/06 09:14:31;;;;;;;1.23;0.70;;;;;;;;;;5089006;28;20398;-78
2022/08/06 09:17:01;;;;;;;2.85;0.60;;;;;;;;;;5072045;28;20012;-77
2022/08/06 09:19:29;;;;;;;1.75;0.70;;;;;;;;;;5088822;28;20036;-77
2022/08/06 09:21:55;;;;;;;2.03;0.60;;;;;;;;;;5055901;28;20111;-78
2022/08/06 09:24:21;;;;;;;2.40;1.00;;;;;;;;;;5071937;28;20074;-77
2022/08/06 09:27:04;;;;;;;1.08;0.50;;;;;;;;;;5086001;28;20526;-77
2022/08/06 09:29:30;;;;;;;2.78;0.73;;;;;;;;;;5089199;28;20040;-78
2022/08/06 09:31:56;;;;;;;1.15;0.50;;;;;;;;;;5073549;28;20044;-76
2022/08/06 09:34:31;;;;;;;2.83;0.80;;;;;;;;;;5056279;28;20103;-78
2022/08/06 09:36:57;;;;;;;1.45;0.70;;;;;;;;;;5073170;28;20050;-77
2022/08/06 09:39:39;;;;;;;1.85;0.50;;;;;;;;;;5087008;28;20036;-78
2022/08/06 09:42:06;;;;;;;2.05;0.43;;;;;;;;;;5047853;28;20124;-78
2022/08/06 09:44:32;;;;;;;2.22;0.80;;;;;;;;;;5044493;28;20040;-76
2022/08/06 09:46:59;;;;;;;2.92;0.50;;;;;;;;;;5089065;28;20024;-79
2022/08/06 09:49:27;;;;;;;3.03;0.60;;;;;;;;;;5072448;28;20048;-76
2022/08/06 09:52:10;;;;;;;1.90;0.55;;;;;;;;;;5048391;28;20083;-78
2022/08/06 09:54:37;;;;;;;1.67;0.70;;;;;;;;;;5051221;28;20029;-77
2022/08/06 09:57:03;;;;;;;1.45;0.50;;;;;;;;;;5070388;28;20198;-78
2022/08/06 09:59:42;;;;;;;2.33;0.80;;;;;;;;;;5053166;28;20028;-77
2022/08/06 10:02:13;;;;;;;1.58;0.60;;;;;;;;;;5071865;28;20040;-78
2022/08/06 10:04:42;;;;;;;2.38;0.50;;;;;;;;;;5088939;28;20031;-76
2022/08/06 10:07:08;;;;;;;2.17;0.70;;;;;;;;;;5088678;28;20032;-77
2022/08/06 10:09:36;;;;;;;2.00;0.50;;;;;;;;;;5087471;28;20037;-78
2022/08/06 10:12:16;;;;;;;1.67;0.50;;;;;;;;;;5074451;28;20012;-77
2022/08/06 10:14:42;;;;;;;1.40;0.40;;;;;;;;;;5088778;28;20033;-77
2022/08/06 10:17:09;;;;;;;0.88;0.47;;;;;;;;;;5089465;28;20085;-78
2022/08/06 10:19:36;;;;;;;1.48;0.50;;;;;;;;;;5072747;28;20049;-77
2022/08/06 10:22:05;;;;;;;2.92;0.52;;;;;;;;;;5071064;28;20020;-77
2022/08/06 10:24:32;;;;;;;1.55;0.50;;;;;;;;;;5087897;28;20040;-77
2022/08/06 10:26:58;;;;;;;1.00;0.40;;;;;;;;;;5072851;28;20024;-77
2022/08/06 10:29:26;;;;;;;0.57;0.40;;;;;;;;;;5088647;28;20028;-78
2022/08/06 10:31:53;;;;;;;0.70;0.32;;;;;;;;;;5089299;28;20475;-77
2022/08/06 10:34:24;;;;;;;0.50;0.40;;;;;;;;;;5089247;28;20029;-77
2022/08/06 10:37:02;;;;;;;1.13;0.70;;;;;;;;;;5087295;28;20067;-77
2022/08/06 10:39:31;;;;;;;1.48;0.40;;;;;;;;;;5073454;28;20017;-77
2022/08/06 10:41:57;;;;;;;0.85;0.40;;;;;;;;;;5081920;28;20028;-77
2022/08/06 10:44:24;;;;;;;1.02;0.32;;;;;;;;;;5052421;28;20025;-77
2022/08/06 10:46:51;;;;;;;1.10;0.35;;;;;;;;;;5067758;28;20383;-76
2022/08/06 10:49:19;;;;;;;2.80;0.50;;;;;;;;;;5067687;28;20115;-76
2022/08/06 10:51:46;;;;;;;1.25;0.40;;;;;;;;;;5052597;28;20072;-77
2022/08/06 10:54:12;;;;;;;1.77;0.50;;;;;;;;;;5076226;28;20029;-76
2022/08/06 10:56:39;;;;;;;0.35;0.30;;;;;;;;;;5071871;28;20021;-76
2022/08/06 10:59:06;;;;;;;1.73;0.50;;;;;;;;;;5073326;28;20031;-78
2022/08/06 11:01:44;;;;;;;1.38;0.50;;;;;;;;;;5053821;28;20145;-76
2022/08/06 11:04:30;;;;;;;1.75;0.40;;;;;;;;;;5076578;28;20021;-77
2022/08/06 11:06:56;;;;;;;0.30;0.30;;;;;;;;;;5087136;28;20030;-78
2022/08/06 11:09:25;;;;;;;0.90;0.22;;;;;;;;;;5071919;28;20032;-78
2022/08/06 11:12:09;;;;;;;0.50;0.30;;;;;;;;;;5072796;28;20028;-77
2022/08/06 11:14:37;;;;;;;0.50;0.40;;;;;;;;;;5086438;28;20121;-78
2022/08/06 11:17:03;;;;;;;2.45;0.40;;;;;;;;;;5054894;28;20025;-77
2022/08/06 11:19:39;;;;;;;0.73;0.57;;;;;;;;;;5053875;28;20028;-77
2022/08/06 11:22:05;;;;;;;1.52;0.40;;;;;;;;;;5053291;28;20021;-78
2022/08/06 11:24:31;;;;;;;0.98;0.40;;;;;;;;;;5071929;28;20548;-77
2022/08/06 11:26:57;;;;;;;0.45;0.20;;;;;;;;;;5053914;28;20028;-78
2022/08/06 11:29:23;;;;;;;0.68;0.38;;;;;;;;;;5053982;28;20028;-76
2022/08/06 11:31:50;;;;;;;0.38;0.20;;;;;;;;;;5054803;28;20481;-77
2022/08/06 11:34:18;;;;;;;1.35;0.50;;;;;;;;;;5071882;28;20033;-77
2022/08/06 11:36:45;;;;;;;1.00;0.40;;;;;;;;;;5053014;28;20017;-80
2022/08/06 11:39:11;;;;;;;1.02;0.30;;;;;;;;;;5054625;28;20290;-77
2022/08/06 11:41:48;;;;;;;1.58;0.38;;;;;;;;;;5070475;28;20029;-78
2022/08/06 11:44:18;;;;;;;1.85;0.32;;;;;;;;;;5086752;28;20497;-78
2022/08/06 11:46:46;;;;;;;1.63;0.35;;;;;;;;;;5071240;28;20108;-78
2022/08/06 11:49:13;;;;;;;2.67;0.65;;;;;;;;;;5071089;28;20033;-76
2022/08/06 11:51:51;;;;;;;1.75;0.50;;;;;;;;;;5088010;28;20024;-77
2022/08/06 11:54:27;;;;;;;1.38;0.40;;;;;;;;;;5072403;28;20032;-77
2022/08/06 11:57:09;;;;;;;1.30;0.43;;;;;;;;;;5086022;28;20494;-77
2022/08/06 11:59:35;;;;;;;0.52;0.32;;;;;;;;;;5072268;28;20032;-78
2022/08/06 12:02:01;;;;;;;2.10;0.50;;;;;;;;;;5069972;28;20019;-78
2022/08/06 12:04:38;;;;;;;1.02;0.30;;;;;;;;;;5054243;28;20024;-77
2022/08/06 12:07:17;;;;;;;2.03;0.60;;;;;;;;;;5053350;28;20021;-77
2022/08/06 12:09:46;;;;;;;1.60;0.50;;;;;;;;;;5071366;28;20040;-78
2022/08/06 12:12:25;;;;;;;1.00;0.35;;;;;;;;;;5054061;28;20024;-77
2022/08/06 12:14:52;;;;;;;0.52;0.25;;;;;;;;;;5070545;28;20035;-76
2022/08/06 12:17:19;;;;;;;3.38;0.55;;;;;;;;;;5054238;28;20028;-77
2022/08/06 12:19:46;;;;;;;0.52;0.40;;;;;;;;;;5074068;28;20095;-76
2022/08/06 12:22:16;;;;;;;0.50;0.35;;;;;;;;;;5056270;28;20024;-79
2022/08/06 12:24:43;;;;;;;1.23;0.30;;;;;;;;;;5074790;28;20047;-77
2022/08/06 12:27:10;;;;;;;2.53;0.50;;;;;;;;;;5056657;28;20036;-78
2022/08/06 12:29:37;;;;;;;1.00;0.20;;;;;;;;;;5057294;28;20090;-77
2022/08/06 12:32:20;;;;;;;1.10;0.30;;;;;;;;;;5058172;28;20074;-77
2022/08/06 12:34:46;;;;;;;0.73;0.30;;;;;;;;;;5076212;28;20052;-77
2022/08/06 12:37:12;;;;;;;0.43;0.30;;;;;;;;;;5055779;28;20028;-77
2022/08/06 12:42:27;;;;;;;1.17;0.40;;;;;;;;;;5072305;28;20078;-77
2022/08/06 12:44:53;;;;;;;0.93;0.30;;;;;;;;;;5090287;28;20029;-77
2022/08/06 12:47:19;;;;;;;0.63;0.30;;;;;;;;;;5089934;28;20086;-76
2022/08/06 12:49:45;;;;;;;1.00;0.35;;;;;;;;;;5090506;28;20102;-77
2022/08/06 12:52:12;;;;;;;0.98;0.40;;;;;;;;;;5091134;28;20424;-77
2022/08/06 12:54:38;;;;;;;0.60;0.40;;;;;;;;;;5075596;28;20021;-77
2022/08/06 12:57:07;;;;;;;0.85;0.40;;;;;;;;;;5073875;28;20017;-78
2022/08/06 12:59:34;;;;;;;1.08;0.40;;;;;;;;;;5075559;28;20021;-77
2022/08/06 13:02:00;;;;;;;0.95;0.30;;;;;;;;;;5055282;28;20390;-78
2022/08/06 13:04:26;;;;;;;0.40;0.30;;;;;;;;;;5077253;28;20533;-77
2022/08/06 13:06:52;;;;;;;1.15;0.30;;;;;;;;;;5061447;28;20701;-79
2022/08/06 13:09:28;;;;;;;0.75;0.40;;;;;;;;;;5061594;28;20050;-78
2022/08/06 13:11:54;;;;;;;1.33;0.43;;;;;;;;;;5077229;28;20474;-78
2022/08/06 13:14:20;;;;;;;0.65;0.35;;;;;;;;;;5069582;28;20024;-76
2022/08/06 13:16:47;;;;;;;1.05;0.20;;;;;;;;;;5087667;28;20035;-77
2022/08/06 13:19:14;;;;;;;1.00;0.50;;;;;;;;;;5090273;28;20163;-77
2022/08/06 13:21:41;;;;;;;1.17;0.47;;;;;;;;;;5088930;28;20111;-78
2022/08/06 13:24:07;;;;;;;0.55;0.30;;;;;;;;;;5052570;28;20499;-77
2022/08/06 13:26:46;;;;;;;1.55;0.30;;;;;;;;;;5053175;28;20108;-78
2022/08/06 13:29:22;;;;;;;0.52;0.30;;;;;;;;;;5052048;28;20279;-77
2022/08/06 13:31:57;;;;;;;0.95;0.40;;;;;;;;;;5053382;28;20057;-77
2022/08/06 13:34:23;;;;;;;1.40;0.40;;;;;;;;;;5052748;28;20067;-77
2022/08/06 13:36:54;;;;;;;0.77;0.35;;;;;;;;;;5056202;28;20052;-77
2022/08/06 13:39:21;;;;;;;0.98;0.40;;;;;;;;;;5088975;28;20021;-77
2022/08/06 13:41:48;;;;;;;1.20;0.60;;;;;;;;;;5071652;28;20355;-77
2022/08/06 13:44:26;;;;;;;2.15;0.55;;;;;;;;;;5072525;28;20386;-77
2022/08/06 13:46:52;;;;;;;1.95;0.70;;;;;;;;;;5058945;28;20032;-77
2022/08/06 13:49:18;;;;;;;1.23;0.40;;;;;;;;;;5073394;28;20383;-77
2022/08/06 13:51:44;;;;;;;0.52;0.35;;;;;;;;;;5073978;28;20093;-76
2022/08/06 13:54:10;;;;;;;1.98;0.50;;;;;;;;;;5090093;28;20024;-77
2022/08/06 13:56:36;;;;;;;2.15;0.55;;;;;;;;;;5074354;28;20029;-78
2022/08/06 13:59:02;;;;;;;1.08;0.47;;;;;;;;;;5088670;28;20024;-77
2022/08/06 14:01:28;;;;;;;0.60;0.40;;;;;;;;;;5072907;28;20066;-77
2022/08/06 14:03:54;;;;;;;0.38;0.38;;;;;;;;;;5072556;28;20016;-77
2022/08/06 14:06:20;;;;;;;0.88;0.25;;;;;;;;;;5089489;28;20032;-77
2022/08/06 14:08:47;;;;;;;1.30;0.40;;;;;;;;;;5073009;28;20075;-78
2022/08/06 14:11:13;;;;;;;2.78;0.50;;;;;;;;;;5074103;28;20111;-77
2022/08/06 14:13:39;;;;;;;0.82;0.30;;;;;;;;;;5074011;28;20441;-77
2022/08/06 14:16:05;;;;;;;0.60;0.40;;;;;;;;;;5073292;28;20103;-77
2022/08/06 14:18:31;;;;;;;1.00;0.45;;;;;;;;;;5088880;28;20124;-77
2022/08/06 14:20:57;;;;;;;0.35;0.35;;;;;;;;;;5072717;28;20107;-77
2022/08/06 14:23:23;;;;;;;1.15;0.50;;;;;;;;;;5071036;28;20039;-76
2022/08/06 14:25:49;;;;;;;0.40;0.32;;;;;;;;;;5072728;28;20505;-77
2022/08/06 14:28:16;;;;;;;0.52;0.40;;;;;;;;;;5087799;28;20068;-77
2022/08/06 14:30:43;;;;;;;0.93;0.40;;;;;;;;;;5089084;28;20083;-77
2022/08/06 14:33:09;;;;;;;0.85;0.50;;;;;;;;;;5073870;28;20052;-77
2022/08/06 14:35:36;;;;;;;0.85;0.40;;;;;;;;;;5089413;28;20190;-78
2022/08/06 14:38:03;;;;;;;1.38;0.40;;;;;;;;;;5072380;28;20017;-77
2022/08/06 14:45:59;;;;;;;1.15;0.70;;;;;;;;;;5072735;28;20555;-77
2022/08/06 14:48:28;;;;;;;1.35;0.55;;;;;;;;;;5088112;28;20040;-77
2022/08/06 14:50:54;;;;;;;1.30;0.60;;;;;;;;;;5088995;28;20048;-76
2022/08/06 14:53:20;;;;;;;1.35;0.50;;;;;;;;;;5088152;28;20517;-76
2022/08/06 14:55:46;;;;;;;0.80;0.50;;;;;;;;;;5089005;28;20093;-77
2022/08/06 14:58:12;;;;;;;1.08;0.50;;;;;;;;;;5085029;28;20474;-76
2022/08/06 15:00:38;;;;;;;0.77;0.47;;;;;;;;;;5088032;28;20024;-76
2022/08/06 15:03:07;;;;;;;1.95;0.60;;;;;;;;;;5086486;28;20024;-77
2022/08/06 15:05:34;;;;;;;3.78;0.65;;;;;;;;;;5088963;28;20025;-77